sensor_id;sensor_type;location;lat;lon;timestamp;P1;durP1;ratioP1;P2;durP2;ratioP2
5454;SDS011;2750;49.050;9.250;2023-02-01T00:01:58;5.23;;;2.67;;
5454;SDS011;2750;49.050;9.250;2023-02-01T00:07:00;3.83;;;2.80;;
5454;SDS011;2750;49.050;9.250;2023-02-01T00:12:03;3.00;;;2.27;;
5454;SDS011;2750;49.050;9.250;2023-02-01T00:17:05;3.17;;;2.40;;
5454;SDS011;2750;49.050;9.250;2023-02-01T00:22:07;3.53;;;2.23;;
5454;SDS011;2750;49.050;9.250;2023-02-01T00:27:10;2.83;;;2.03;;
5454;SDS011;2750;49.050;9.250;2023-02-01T00:32:17;3.93;;;2.80;;
5454;SDS011;2750;49.050;9.250;2023-02-01T00:37:18;4.30;;;2.47;;
5454;SDS011;2750;49.050;9.250;2023-02-01T00:42:21;8.90;;;3.67;;
5454;SDS011;2750;49.050;9.250;2023-02-01T00:47:23;3.97;;;3.23;;
5454;SDS011;2750;49.050;9.250;2023-02-01T00:52:24;4.80;;;2.60;;
5454;SDS011;2750;49.050;9.250;2023-02-01T00:57:27;3.57;;;3.10;;
5454;SDS011;2750;49.050;9.250;2023-02-01T01:02:28;7.93;;;3.13;;
5454;SDS011;2750;49.050;9.250;2023-02-01T01:07:30;3.40;;;2.80;;
5454;SDS011;2750;49.050;9.250;2023-02-01T01:12:33;3.40;;;2.70;;
5454;SDS011;2750;49.050;9.250;2023-02-01T01:17:34;4.13;;;2.57;;
5454;SDS011;2750;49.050;9.250;2023-02-01T01:22:36;4.40;;;3.20;;
5454;SDS011;2750;49.050;9.250;2023-02-01T01:27:38;2.97;;;2.50;;
5454;SDS011;2750;49.050;9.250;2023-02-01T01:32:40;4.70;;;2.73;;
5454;SDS011;2750;49.050;9.250;2023-02-01T01:37:41;3.63;;;2.37;;
5454;SDS011;2750;49.050;9.250;2023-02-01T01:42:44;2.97;;;2.77;;
5454;SDS011;2750;49.050;9.250;2023-02-01T01:47:46;4.33;;;3.00;;
5454;SDS011;2750;49.050;9.250;2023-02-01T01:52:51;2.43;;;2.23;;
5454;SDS011;2750;49.050;9.250;2023-02-01T01:58:00;3.03;;;2.23;;
5454;SDS011;2750;49.050;9.250;2023-02-01T02:03:07;3.40;;;2.43;;
5454;SDS011;2750;49.050;9.250;2023-02-01T02:08:14;5.00;;;2.30;;
5454;SDS011;2750;49.050;9.250;2023-02-01T02:13:17;3.37;;;2.70;;
5454;SDS011;2750;49.050;9.250;2023-02-01T02:18:19;3.60;;;2.70;;
5454;SDS011;2750;49.050;9.250;2023-02-01T02:23:42;3.17;;;2.87;;
5454;SDS011;2750;49.050;9.250;2023-02-01T02:29:21;2.90;;;2.60;;
5454;SDS011;2750;49.050;9.250;2023-02-01T02:34:39;3.50;;;2.97;;
5454;SDS011;2750;49.050;9.250;2023-02-01T02:39:48;4.30;;;2.53;;
5454;SDS011;2750;49.050;9.250;2023-02-01T02:44:57;3.17;;;2.87;;
5454;SDS011;2750;49.050;9.250;2023-02-01T02:50:25;4.27;;;2.67;;
5454;SDS011;2750;49.050;9.250;2023-02-01T02:55:49;4.77;;;3.00;;
5454;SDS011;2750;49.050;9.250;2023-02-01T03:01:06;2.90;;;2.37;;
5454;SDS011;2750;49.050;9.250;2023-02-01T03:06:27;2.33;;;1.90;;
5454;SDS011;2750;49.050;9.250;2023-02-01T03:11:29;2.43;;;2.00;;
5454;SDS011;2750;49.050;9.250;2023-02-01T03:16:47;2.30;;;2.10;;
5454;SDS011;2750;49.050;9.250;2023-02-01T03:21:55;3.67;;;2.50;;
5454;SDS011;2750;49.050;9.250;2023-02-01T03:27:02;3.70;;;2.50;;
5454;SDS011;2750;49.050;9.250;2023-02-01T03:32:09;1.93;;;1.73;;
5454;SDS011;2750;49.050;9.250;2023-02-01T03:37:13;3.10;;;2.33;;
5454;SDS011;2750;49.050;9.250;2023-02-01T03:42:24;2.60;;;2.40;;
5454;SDS011;2750;49.050;9.250;2023-02-01T03:47:30;2.23;;;2.00;;
5454;SDS011;2750;49.050;9.250;2023-02-01T03:52:38;2.57;;;2.17;;
5454;SDS011;2750;49.050;9.250;2023-02-01T03:57:43;2.70;;;2.50;;
5454;SDS011;2750;49.050;9.250;2023-02-01T04:02:47;2.80;;;2.50;;
5454;SDS011;2750;49.050;9.250;2023-02-01T04:07:51;2.90;;;1.73;;
5454;SDS011;2750;49.050;9.250;2023-02-01T04:12:54;2.33;;;2.03;;
5454;SDS011;2750;49.050;9.250;2023-02-01T04:17:55;3.73;;;2.13;;
5454;SDS011;2750;49.050;9.250;2023-02-01T04:22:58;2.57;;;2.20;;
5454;SDS011;2750;49.050;9.250;2023-02-01T04:28:02;3.20;;;1.80;;
5454;SDS011;2750;49.050;9.250;2023-02-01T04:33:04;4.07;;;2.10;;
5454;SDS011;2750;49.050;9.250;2023-02-01T04:38:07;2.83;;;2.43;;
5454;SDS011;2750;49.050;9.250;2023-02-01T04:43:09;3.40;;;2.90;;
5454;SDS011;2750;49.050;9.250;2023-02-01T04:48:10;3.20;;;2.40;;
5454;SDS011;2750;49.050;9.250;2023-02-01T04:53:13;4.47;;;3.40;;
5454;SDS011;2750;49.050;9.250;2023-02-01T04:58:15;4.40;;;2.60;;
5454;SDS011;2750;49.050;9.250;2023-02-01T05:03:17;3.60;;;2.70;;
5454;SDS011;2750;49.050;9.250;2023-02-01T05:08:20;3.20;;;2.37;;
5454;SDS011;2750;49.050;9.250;2023-02-01T05:13:22;3.00;;;2.13;;
5454;SDS011;2750;49.050;9.250;2023-02-01T05:18:41;2.40;;;2.13;;
5454;SDS011;2750;49.050;9.250;2023-02-01T05:23:44;3.33;;;2.30;;
5454;SDS011;2750;49.050;9.250;2023-02-01T05:29:03;2.10;;;2.00;;
5454;SDS011;2750;49.050;9.250;2023-02-01T05:34:06;2.20;;;2.00;;
5454;SDS011;2750;49.050;9.250;2023-02-01T05:39:09;1.90;;;1.80;;
5454;SDS011;2750;49.050;9.250;2023-02-01T05:44:11;2.27;;;2.00;;
5454;SDS011;2750;49.050;9.250;2023-02-01T05:49:12;3.97;;;2.40;;
5454;SDS011;2750;49.050;9.250;2023-02-01T05:54:15;2.53;;;2.30;;
5454;SDS011;2750;49.050;9.250;2023-02-01T05:59:17;2.93;;;2.57;;
5454;SDS011;2750;49.050;9.250;2023-02-01T06:04:18;2.87;;;2.13;;
5454;SDS011;2750;49.050;9.250;2023-02-01T06:09:21;3.13;;;2.60;;
5454;SDS011;2750;49.050;9.250;2023-02-01T06:14:23;3.27;;;2.30;;
5454;SDS011;2750;49.050;9.250;2023-02-01T06:19:24;4.33;;;2.63;;
5454;SDS011;2750;49.050;9.250;2023-02-01T06:24:27;2.57;;;2.37;;
5454;SDS011;2750;49.050;9.250;2023-02-01T06:29:29;10.47;;;6.77;;
5454;SDS011;2750;49.050;9.250;2023-02-01T06:34:30;6.33;;;4.97;;
5454;SDS011;2750;49.050;9.250;2023-02-01T06:39:34;6.00;;;4.10;;
5454;SDS011;2750;49.050;9.250;2023-02-01T06:44:35;4.67;;;3.47;;
5454;SDS011;2750;49.050;9.250;2023-02-01T06:49:37;8.47;;;4.90;;
5454;SDS011;2750;49.050;9.250;2023-02-01T06:54:41;7.87;;;4.50;;
5454;SDS011;2750;49.050;9.250;2023-02-01T06:59:43;5.97;;;4.50;;
5454;SDS011;2750;49.050;9.250;2023-02-01T07:04:44;8.90;;;4.70;;
5454;SDS011;2750;49.050;9.250;2023-02-01T07:09:47;7.13;;;4.80;;
5454;SDS011;2750;49.050;9.250;2023-02-01T07:14:49;4.57;;;4.17;;
5454;SDS011;2750;49.050;9.250;2023-02-01T07:19:50;6.43;;;4.80;;
5454;SDS011;2750;49.050;9.250;2023-02-01T07:24:53;6.77;;;5.10;;
5454;SDS011;2750;49.050;9.250;2023-02-01T07:29:54;8.33;;;4.53;;
5454;SDS011;2750;49.050;9.250;2023-02-01T07:34:56;8.50;;;4.87;;
5454;SDS011;2750;49.050;9.250;2023-02-01T07:40:00;8.73;;;5.67;;
5454;SDS011;2750;49.050;9.250;2023-02-01T07:45:02;6.87;;;5.07;;
5454;SDS011;2750;49.050;9.250;2023-02-01T07:50:04;6.77;;;4.60;;
5454;SDS011;2750;49.050;9.250;2023-02-01T07:55:08;6.07;;;4.47;;
5454;SDS011;2750;49.050;9.250;2023-02-01T08:00:10;5.50;;;4.17;;
5454;SDS011;2750;49.050;9.250;2023-02-01T08:05:31;10.90;;;5.60;;
5454;SDS011;2750;49.050;9.250;2023-02-01T08:10:34;10.90;;;5.50;;
5454;SDS011;2750;49.050;9.250;2023-02-01T08:15:35;7.67;;;4.67;;
5454;SDS011;2750;49.050;9.250;2023-02-01T08:20:37;7.27;;;4.40;;
5454;SDS011;2750;49.050;9.250;2023-02-01T08:25:42;9.20;;;6.43;;
5454;SDS011;2750;49.050;9.250;2023-02-01T08:30:44;6.10;;;3.97;;
5454;SDS011;2750;49.050;9.250;2023-02-01T08:35:46;9.37;;;4.70;;
5454;SDS011;2750;49.050;9.250;2023-02-01T08:40:49;10.73;;;4.90;;
5454;SDS011;2750;49.050;9.250;2023-02-01T08:45:52;7.60;;;4.93;;
5454;SDS011;2750;49.050;9.250;2023-02-01T08:50:56;9.73;;;4.83;;
5454;SDS011;2750;49.050;9.250;2023-02-01T08:55:59;8.57;;;5.10;;
5454;SDS011;2750;49.050;9.250;2023-02-01T09:01:02;11.97;;;5.03;;
5454;SDS011;2750;49.050;9.250;2023-02-01T09:06:05;9.40;;;4.17;;
5454;SDS011;2750;49.050;9.250;2023-02-01T09:11:10;8.67;;;3.90;;
5454;SDS011;2750;49.050;9.250;2023-02-01T09:16:13;6.67;;;3.50;;
5454;SDS011;2750;49.050;9.250;2023-02-01T09:21:15;7.90;;;3.37;;
5454;SDS011;2750;49.050;9.250;2023-02-01T09:26:18;7.63;;;3.30;;
5454;SDS011;2750;49.050;9.250;2023-02-01T09:31:20;13.27;;;4.33;;
5454;SDS011;2750;49.050;9.250;2023-02-01T09:36:21;6.63;;;3.53;;
5454;SDS011;2750;49.050;9.250;2023-02-01T09:41:29;8.93;;;3.87;;
5454;SDS011;2750;49.050;9.250;2023-02-01T09:46:52;10.25;;;4.70;;
5454;SDS011;2750;49.050;9.250;2023-02-01T09:51:56;8.73;;;4.07;;
5454;SDS011;2750;49.050;9.250;2023-02-01T09:57:00;10.33;;;3.97;;
5454;SDS011;2750;49.050;9.250;2023-02-01T10:02:11;8.97;;;3.97;;
5454;SDS011;2750;49.050;9.250;2023-02-01T10:07:19;6.27;;;3.57;;
5454;SDS011;2750;49.050;9.250;2023-02-01T10:17:54;9.40;;;3.23;;
5454;SDS011;2750;49.050;9.250;2023-02-01T10:23:10;4.00;;;1.80;;
5454;SDS011;2750;49.050;9.250;2023-02-01T10:28:26;6.03;;;3.70;;
5454;SDS011;2750;49.050;9.250;2023-02-01T10:33:30;12.80;;;3.53;;
5454;SDS011;2750;49.050;9.250;2023-02-01T10:38:34;9.30;;;2.97;;
5454;SDS011;2750;49.050;9.250;2023-02-01T10:43:37;10.57;;;3.67;;
5454;SDS011;2750;49.050;9.250;2023-02-01T10:48:39;8.97;;;3.47;;
5454;SDS011;2750;49.050;9.250;2023-02-01T10:53:42;9.20;;;3.70;;
5454;SDS011;2750;49.050;9.250;2023-02-01T10:58:50;6.10;;;2.90;;
5454;SDS011;2750;49.050;9.250;2023-02-01T11:03:55;4.80;;;1.90;;
5454;SDS011;2750;49.050;9.250;2023-02-01T11:09:00;8.43;;;3.10;;
5454;SDS011;2750;49.050;9.250;2023-02-01T11:14:13;3.93;;;2.43;;
5454;SDS011;2750;49.050;9.250;2023-02-01T11:19:17;7.10;;;3.33;;
5454;SDS011;2750;49.050;9.250;2023-02-01T11:24:21;7.97;;;2.90;;
5454;SDS011;2750;49.050;9.250;2023-02-01T11:29:26;6.33;;;3.00;;
5454;SDS011;2750;49.050;9.250;2023-02-01T11:34:36;6.53;;;2.73;;
5454;SDS011;2750;49.050;9.250;2023-02-01T11:39:39;9.03;;;2.53;;
5454;SDS011;2750;49.050;9.250;2023-02-01T11:44:44;7.00;;;3.10;;
5454;SDS011;2750;49.050;9.250;2023-02-01T11:49:46;8.17;;;3.00;;
5454;SDS011;2750;49.050;9.250;2023-02-01T11:54:53;12.47;;;3.43;;
5454;SDS011;2750;49.050;9.250;2023-02-01T12:00:09;4.07;;;2.60;;
5454;SDS011;2750;49.050;9.250;2023-02-01T12:05:25;9.63;;;2.90;;
5454;SDS011;2750;49.050;9.250;2023-02-01T12:10:35;7.53;;;2.73;;
5454;SDS011;2750;49.050;9.250;2023-02-01T12:15:50;10.43;;;3.57;;
5454;SDS011;2750;49.050;9.250;2023-02-01T12:21:06;8.37;;;3.23;;
5454;SDS011;2750;49.050;9.250;2023-02-01T12:26:25;7.77;;;3.77;;
5454;SDS011;2750;49.050;9.250;2023-02-01T12:31:51;10.37;;;2.90;;
5454;SDS011;2750;49.050;9.250;2023-02-01T12:37:07;7.07;;;2.90;;
5454;SDS011;2750;49.050;9.250;2023-02-01T12:42:16;9.70;;;3.33;;
5454;SDS011;2750;49.050;9.250;2023-02-01T12:47:24;6.97;;;3.07;;
5454;SDS011;2750;49.050;9.250;2023-02-01T12:52:34;7.80;;;3.13;;
5454;SDS011;2750;49.050;9.250;2023-02-01T12:57:40;9.37;;;3.30;;
5454;SDS011;2750;49.050;9.250;2023-02-01T13:02:47;8.53;;;2.60;;
5454;SDS011;2750;49.050;9.250;2023-02-01T13:07:56;6.03;;;2.77;;
5454;SDS011;2750;49.050;9.250;2023-02-01T13:13:02;7.00;;;2.80;;
5454;SDS011;2750;49.050;9.250;2023-02-01T13:18:13;6.63;;;2.27;;
5454;SDS011;2750;49.050;9.250;2023-02-01T13:23:22;8.33;;;2.63;;
5454;SDS011;2750;49.050;9.250;2023-02-01T13:28:27;7.20;;;2.60;;
5454;SDS011;2750;49.050;9.250;2023-02-01T13:34:03;5.73;;;2.47;;
5454;SDS011;2750;49.050;9.250;2023-02-01T13:39:38;6.43;;;3.20;;
5454;SDS011;2750;49.050;9.250;2023-02-01T13:44:47;6.70;;;3.00;;
5454;SDS011;2750;49.050;9.250;2023-02-01T13:49:52;10.37;;;2.73;;
5454;SDS011;2750;49.050;9.250;2023-02-01T13:55:15;11.90;;;2.97;;
5454;SDS011;2750;49.050;9.250;2023-02-01T14:00:26;7.17;;;3.33;;
5454;SDS011;2750;49.050;9.250;2023-02-01T14:10:58;10.87;;;3.83;;
5454;SDS011;2750;49.050;9.250;2023-02-01T14:16:12;7.93;;;2.80;;
5454;SDS011;2750;49.050;9.250;2023-02-01T14:21:19;8.17;;;3.17;;
5454;SDS011;2750;49.050;9.250;2023-02-01T14:26:24;12.93;;;3.30;;
5454;SDS011;2750;49.050;9.250;2023-02-01T14:31:42;9.20;;;2.73;;
5454;SDS011;2750;49.050;9.250;2023-02-01T14:36:51;13.57;;;3.10;;
5454;SDS011;2750;49.050;9.250;2023-02-01T14:41:57;9.83;;;3.47;;
5454;SDS011;2750;49.050;9.250;2023-02-01T14:47:09;5.33;;;2.77;;
5454;SDS011;2750;49.050;9.250;2023-02-01T14:52:30;10.23;;;3.13;;
5454;SDS011;2750;49.050;9.250;2023-02-01T14:57:36;7.23;;;3.13;;
5454;SDS011;2750;49.050;9.250;2023-02-01T15:02:41;13.67;;;3.50;;
5454;SDS011;2750;49.050;9.250;2023-02-01T15:07:45;10.33;;;4.10;;
5454;SDS011;2750;49.050;9.250;2023-02-01T15:12:47;9.90;;;3.23;;
5454;SDS011;2750;49.050;9.250;2023-02-01T15:17:51;6.10;;;2.23;;
5454;SDS011;2750;49.050;9.250;2023-02-01T15:22:56;8.43;;;3.43;;
5454;SDS011;2750;49.050;9.250;2023-02-01T15:27:59;8.93;;;2.83;;
5454;SDS011;2750;49.050;9.250;2023-02-01T15:33:04;8.17;;;2.70;;
5454;SDS011;2750;49.050;9.250;2023-02-01T15:38:19;7.57;;;3.67;;
5454;SDS011;2750;49.050;9.250;2023-02-01T15:43:37;17.60;;;3.57;;
5454;SDS011;2750;49.050;9.250;2023-02-01T15:48:45;7.23;;;2.77;;
5454;SDS011;2750;49.050;9.250;2023-02-01T15:53:53;11.57;;;3.57;;
5454;SDS011;2750;49.050;9.250;2023-02-01T15:58:58;9.43;;;3.30;;
5454;SDS011;2750;49.050;9.250;2023-02-01T16:04:03;14.13;;;3.87;;
5454;SDS011;2750;49.050;9.250;2023-02-01T16:09:14;7.63;;;3.00;;
5454;SDS011;2750;49.050;9.250;2023-02-01T16:14:17;9.27;;;3.53;;
5454;SDS011;2750;49.050;9.250;2023-02-01T16:19:19;10.67;;;3.90;;
5454;SDS011;2750;49.050;9.250;2023-02-01T16:24:22;8.90;;;3.20;;
5454;SDS011;2750;49.050;9.250;2023-02-01T16:29:25;10.00;;;3.50;;
5454;SDS011;2750;49.050;9.250;2023-02-01T16:34:27;11.03;;;3.63;;
5454;SDS011;2750;49.050;9.250;2023-02-01T16:39:30;12.13;;;4.47;;
5454;SDS011;2750;49.050;9.250;2023-02-01T16:44:33;6.37;;;3.60;;
5454;SDS011;2750;49.050;9.250;2023-02-01T16:49:34;9.33;;;3.40;;
5454;SDS011;2750;49.050;9.250;2023-02-01T16:54:38;11.57;;;3.10;;
5454;SDS011;2750;49.050;9.250;2023-02-01T16:59:39;10.83;;;3.47;;
5454;SDS011;2750;49.050;9.250;2023-02-01T17:04:41;6.47;;;2.67;;
5454;SDS011;2750;49.050;9.250;2023-02-01T17:09:45;8.87;;;3.10;;
5454;SDS011;2750;49.050;9.250;2023-02-01T17:14:47;6.00;;;3.00;;
5454;SDS011;2750;49.050;9.250;2023-02-01T17:19:49;10.73;;;3.47;;
5454;SDS011;2750;49.050;9.250;2023-02-01T17:24:54;6.33;;;2.87;;
5454;SDS011;2750;49.050;9.250;2023-02-01T17:29:56;10.40;;;3.90;;
5454;SDS011;2750;49.050;9.250;2023-02-01T17:34:57;11.83;;;4.80;;
5454;SDS011;2750;49.050;9.250;2023-02-01T17:40:00;8.50;;;2.90;;
5454;SDS011;2750;49.050;9.250;2023-02-01T17:45:10;6.27;;;3.77;;
5454;SDS011;2750;49.050;9.250;2023-02-01T17:50:20;11.00;;;3.77;;
5454;SDS011;2750;49.050;9.250;2023-02-01T17:55:24;8.77;;;3.70;;
5454;SDS011;2750;49.050;9.250;2023-02-01T18:00:26;10.10;;;3.37;;
5454;SDS011;2750;49.050;9.250;2023-02-01T18:05:28;8.73;;;2.80;;
5454;SDS011;2750;49.050;9.250;2023-02-01T18:10:40;12.80;;;4.20;;
5454;SDS011;2750;49.050;9.250;2023-02-01T18:15:41;8.03;;;3.27;;
5454;SDS011;2750;49.050;9.250;2023-02-01T18:20:43;8.10;;;3.73;;
5454;SDS011;2750;49.050;9.250;2023-02-01T18:25:47;8.97;;;2.53;;
5454;SDS011;2750;49.050;9.250;2023-02-01T18:30:50;7.00;;;2.80;;
5454;SDS011;2750;49.050;9.250;2023-02-01T18:35:51;6.57;;;2.50;;
5454;SDS011;2750;49.050;9.250;2023-02-01T18:40:54;6.40;;;2.83;;
5454;SDS011;2750;49.050;9.250;2023-02-01T18:45:57;5.47;;;2.40;;
5454;SDS011;2750;49.050;9.250;2023-02-01T18:50:58;8.20;;;2.93;;
5454;SDS011;2750;49.050;9.250;2023-02-01T18:56:01;6.10;;;2.90;;
5454;SDS011;2750;49.050;9.250;2023-02-01T19:01:04;6.53;;;2.90;;
5454;SDS011;2750;49.050;9.250;2023-02-01T19:06:07;9.27;;;3.37;;
5454;SDS011;2750;49.050;9.250;2023-02-01T19:11:10;9.70;;;2.67;;
5454;SDS011;2750;49.050;9.250;2023-02-01T19:16:12;6.07;;;2.77;;
5454;SDS011;2750;49.050;9.250;2023-02-01T19:21:14;9.40;;;3.30;;
5454;SDS011;2750;49.050;9.250;2023-02-01T19:26:17;17.53;;;3.27;;
5454;SDS011;2750;49.050;9.250;2023-02-01T19:31:18;9.37;;;3.27;;
5454;SDS011;2750;49.050;9.250;2023-02-01T19:36:20;10.47;;;3.23;;
5454;SDS011;2750;49.050;9.250;2023-02-01T19:41:22;11.40;;;2.97;;
5454;SDS011;2750;49.050;9.250;2023-02-01T19:46:24;12.90;;;3.10;;
5454;SDS011;2750;49.050;9.250;2023-02-01T19:51:26;6.63;;;2.73;;
5454;SDS011;2750;49.050;9.250;2023-02-01T19:56:28;5.80;;;2.60;;
5454;SDS011;2750;49.050;9.250;2023-02-01T20:01:30;9.60;;;3.00;;
5454;SDS011;2750;49.050;9.250;2023-02-01T20:06:33;13.03;;;3.33;;
5454;SDS011;2750;49.050;9.250;2023-02-01T20:11:40;6.17;;;2.57;;
5454;SDS011;2750;49.050;9.250;2023-02-01T20:16:42;7.70;;;2.80;;
5454;SDS011;2750;49.050;9.250;2023-02-01T20:21:44;11.03;;;3.27;;
5454;SDS011;2750;49.050;9.250;2023-02-01T20:26:47;4.70;;;2.40;;
5454;SDS011;2750;49.050;9.250;2023-02-01T20:31:49;14.53;;;4.37;;
5454;SDS011;2750;49.050;9.250;2023-02-01T20:36:50;13.97;;;3.77;;
5454;SDS011;2750;49.050;9.250;2023-02-01T20:41:53;10.50;;;3.57;;
5454;SDS011;2750;49.050;9.250;2023-02-01T20:46:55;9.67;;;3.10;;
5454;SDS011;2750;49.050;9.250;2023-02-01T20:51:57;5.73;;;2.53;;
5454;SDS011;2750;49.050;9.250;2023-02-01T20:57:00;8.73;;;3.10;;
5454;SDS011;2750;49.050;9.250;2023-02-01T21:02:02;11.30;;;3.20;;
5454;SDS011;2750;49.050;9.250;2023-02-01T21:07:03;10.47;;;3.10;;
5454;SDS011;2750;49.050;9.250;2023-02-01T21:12:06;9.33;;;2.57;;
5454;SDS011;2750;49.050;9.250;2023-02-01T21:17:08;11.67;;;3.63;;
5454;SDS011;2750;49.050;9.250;2023-02-01T21:22:09;10.83;;;3.50;;
5454;SDS011;2750;49.050;9.250;2023-02-01T21:27:13;6.37;;;2.57;;
5454;SDS011;2750;49.050;9.250;2023-02-01T21:32:14;5.80;;;2.33;;
5454;SDS011;2750;49.050;9.250;2023-02-01T21:37:16;6.27;;;2.90;;
5454;SDS011;2750;49.050;9.250;2023-02-01T21:42:18;12.27;;;4.03;;
5454;SDS011;2750;49.050;9.250;2023-02-01T21:47:22;10.70;;;3.10;;
5454;SDS011;2750;49.050;9.250;2023-02-01T21:52:24;13.67;;;3.77;;
5454;SDS011;2750;49.050;9.250;2023-02-01T21:57:28;8.67;;;3.53;;
5454;SDS011;2750;49.050;9.250;2023-02-01T22:02:29;10.27;;;2.97;;
5454;SDS011;2750;49.050;9.250;2023-02-01T22:07:32;7.87;;;2.80;;
5454;SDS011;2750;49.050;9.250;2023-02-01T22:12:35;11.77;;;3.47;;
5454;SDS011;2750;49.050;9.250;2023-02-01T22:17:36;7.77;;;3.60;;
5454;SDS011;2750;49.050;9.250;2023-02-01T22:22:38;8.67;;;2.70;;
5454;SDS011;2750;49.050;9.250;2023-02-01T22:27:41;11.77;;;3.67;;
5454;SDS011;2750;49.050;9.250;2023-02-01T22:32:42;11.47;;;3.17;;
5454;SDS011;2750;49.050;9.250;2023-02-01T22:37:44;9.13;;;2.80;;
5454;SDS011;2750;49.050;9.250;2023-02-01T22:42:47;15.33;;;3.63;;
5454;SDS011;2750;49.050;9.250;2023-02-01T22:47:48;10.03;;;2.90;;
5454;SDS011;2750;49.050;9.250;2023-02-01T22:52:50;8.20;;;3.30;;
5454;SDS011;2750;49.050;9.250;2023-02-01T22:57:52;8.80;;;3.33;;
5454;SDS011;2750;49.050;9.250;2023-02-01T23:02:54;12.03;;;3.67;;
5454;SDS011;2750;49.050;9.250;2023-02-01T23:07:55;6.93;;;2.87;;
5454;SDS011;2750;49.050;9.250;2023-02-01T23:12:58;13.57;;;3.73;;
5454;SDS011;2750;49.050;9.250;2023-02-01T23:18:00;10.17;;;3.87;;
5454;SDS011;2750;49.050;9.250;2023-02-01T23:23:01;12.67;;;3.53;;
5454;SDS011;2750;49.050;9.250;2023-02-01T23:28:04;13.37;;;3.97;;
5454;SDS011;2750;49.050;9.250;2023-02-01T23:33:06;9.07;;;2.63;;
5454;SDS011;2750;49.050;9.250;2023-02-01T23:38:08;9.53;;;4.17;;
5454;SDS011;2750;49.050;9.250;2023-02-01T23:43:11;12.60;;;3.80;;
5454;SDS011;2750;49.050;9.250;2023-02-01T23:48:30;11.23;;;3.77;;
5454;SDS011;2750;49.050;9.250;2023-02-01T23:53:31;11.43;;;3.90;;
5454;SDS011;2750;49.050;9.250;2023-02-01T23:58:34;13.13;;;5.17;;
